Stations météo

réclame
Mon MeteoGroup
Hano, Suède (2628): Température de l'air & dewpoint: 11.07.2018 13:00:00 - 17.07.2018 13:00:00 (CEST)Hano, Suède (2628): Vitesse du vent & gusts: 11.07.2018 13:00:00 - 17.07.2018 13:00:00 (CEST)Hano, Suède (2628): Direction du vent: 11.07.2018 13:00:00 - 17.07.2018 13:00:00 (CEST)Hano, Suède (2628): visibility: 11.07.2018 13:00:00 - 17.07.2018 13:00:00 (CEST)Hano, Suède (2628): Quantités de précipitations: 11.07.2018 13:00:00 - 17.07.2018 13:00:00 (CEST)
Date & Time tt [°C] td [°C] ff [km/h] ff [knt] fx [km/h] fx [knt] dd vv [km] rr [mm]
17.07.2018 13:00:00 27,0 13,4 11 6 22 12 NW 33 0,0
17.07.2018 12:00:00 23,3 16,1 12 7 22 12 W 24 0,1
17.07.2018 11:00:00 21,2 16,6 15 8 20 11 WSW 35 0,0
17.07.2018 10:00:00 22,3 14,7 7 4 17 9 W 39 0,0
17.07.2018 09:00:00 22,8 14,4 8 4 22 12 NE 38 0,0
17.07.2018 08:00:00 21,9 15,5 13 7 23 12 N 36 0,0
17.07.2018 07:00:00 20,6 14,9 13 7 24 13 NNE 50 0,0
17.07.2018 06:00:00 20,6 13,8 18 10 24 13 NNE 50 0,0
17.07.2018 05:00:00 20,1 14,7 11 6 16 9 N 45 0,0
17.07.2018 04:00:00 19,8 15,0 9 5 16 9 N 48 0,0
17.07.2018 03:00:00 20,2 13,9 13 7 16 9 N 47 0,0
17.07.2018 02:00:00 20,1 13,5 11 6 14 8 N 49 0,0
17.07.2018 01:00:00 20,6 15,4 10 5 14 8 N 50 0,0
17.07.2018 00:00:00 21,8 8,3 11 6 14 8 NNW 50 0,0
16.07.2018 23:00:00 23,4 6,2 13 7 14 8 WNW 50 0,0
16.07.2018 22:00:00 23,2 7,3 8 4 13 7 WNW 50 0,0
16.07.2018 21:00:00 22,9 9,7 8 5 13 7 W 50 0,0
16.07.2018 20:00:00 23,7 10,4 10 6 15 8 WSW 50 0,0
16.07.2018 19:00:00 24,8 9,1 9 5 16 9 WSW 49 0,0
16.07.2018 18:00:00 25,0 5,7 9 5 18 10 WSW 41 0,0
16.07.2018 17:00:00 23,4 10,5 11 6 22 12 WSW 42 0,0
16.07.2018 16:00:00 23,8 14,8 14 7 24 13 SW 37 0,0
16.07.2018 15:00:00 25,0 13,2 16 8 24 13 SW 31 0,0
16.07.2018 14:00:00 25,2 14,9 14 8 21 12 SW 39 0,0
16.07.2018 13:00:00 25,7 11,8 15 8 21 12 S 38 0,0
16.07.2018 12:00:00 26,2 9,5 14 8 21 12 SSE 39 0,0
16.07.2018 11:00:00 25,4 11,6 9 5 17 9 ESE 35 0,0
16.07.2018 10:00:00 23,2 13,7 12 6 17 9 E 28 0,0
16.07.2018 09:00:00 21,9 15,0 9 5 16 9 E 33 0,0
16.07.2018 08:00:00 20,9 15,4 11 6 14 8 NE 28 0,0
16.07.2018 07:00:00 20,2 15,4 12 6 14 8 ENE 38 0,0
16.07.2018 06:00:00 19,6 16,1 10 5 17 9 ENE 36 0,0
16.07.2018 05:00:00 18,2 15,8 11 6 17 9 NNE 18 0,0
16.07.2018 04:00:00 18,3 15,5 13 7 19 10 N 23 0,0
16.07.2018 03:00:00 18,6 15,7 13 7 20 11 N 25 0,0
16.07.2018 02:00:00 18,9 15,0 14 8 23 13 N 26 0,0
16.07.2018 01:00:00 19,4 15,1 14 7 23 13 NNW 30 0,0
16.07.2018 00:00:00 20,3 14,0 16 9 26 14 NW 33 0,0
15.07.2018 23:00:00 21,3 14,2 18 10 26 14 WNW 41 0,0
15.07.2018 22:00:00 22,7 13,5 22 12 26 14 NW 41 0,0
15.07.2018 21:00:00 20,6 17,4 14 7 23 12 WSW 34 0,0
15.07.2018 20:00:00 21,2 17,4 15 8 23 12 SW 39 0,0
15.07.2018 19:00:00 22,0 16,3 18 10 28 15 SW 39 0,0
15.07.2018 18:00:00 22,1 17,0 16 8 29 16 SW 35 0,0
15.07.2018 17:00:00 22,4 16,7 21 12 29 16 SW 28 0,0
15.07.2018 16:00:00 23,1 16,9 20 11 29 16 SW 33 0,0
15.07.2018 15:00:00 23,6 14,6 19 10 29 15 SW 36 0,0
15.07.2018 14:00:00 23,6 14,3 16 9 24 13 WSW 29 0,0
15.07.2018 13:00:00 23,5 13,4 15 8 23 13 WSW 31 0,0
15.07.2018 12:00:00 22,7 12,6 11 6 20 11 WSW 34 0,0
15.07.2018 11:00:00 23,7 12,0 13 7 29 16 NNW 34 0,0
15.07.2018 10:00:00 21,6 12,7 13 7 38 21 NNW 38 0,0
15.07.2018 09:00:00 19,3 12,3 22 12 38 21 NNW 32 0,0
15.07.2018 08:00:00 17,9 12,8 23 13 34 18 NNW 32 0,0
15.07.2018 07:00:00 16,5 12,7 24 13 33 18 NNW 35 0,0
15.07.2018 06:00:00 15,4 12,7 18 10 27 15 NW 40 0,0
15.07.2018 05:00:00 15,0 12,3 21 11 27 14 NW 47 0,0
15.07.2018 04:00:00 15,2 12,3 19 10 27 14 NW 44 0,0
15.07.2018 03:00:00 15,2 12,0 20 11 29 16 NW 43 0,0
15.07.2018 02:00:00 15,6 12,0 21 11 32 17 NW 48 0,0
15.07.2018 01:00:00 15,9 11,5 24 13 32 17 NW 45 0,0
15.07.2018 00:00:00 16,6 11,5 23 12 32 17 NW 50 0,0
14.07.2018 23:00:00 17,8 11,6 21 11 37 20 WNW 50 0,0
14.07.2018 22:00:00 18,8 11,8 22 12 37 20 NW 47 0,0
14.07.2018 21:00:00 20,4 11,9 23 13 38 21 WNW 50 0,0
14.07.2018 20:00:00 22,4 12,6 29 15 38 21 WNW 50 0,0
14.07.2018 19:00:00 24,3 11,9 29 16 36 19 W 45 0,0
14.07.2018 18:00:00 26,1 12,2 19 10 31 17 WNW 39 0,0
14.07.2018 17:00:00 26,6 11,5 22 12 31 17 WNW 40 0,0
14.07.2018 16:00:00 25,8 13,3 21 11 34 19 W 33 0,0
14.07.2018 15:00:00 26,5 13,3 23 12 34 19 W 35 0,0
14.07.2018 14:00:00 24,3 14,7 24 13 31 17 WSW 34 0,0
14.07.2018 13:00:00 25,3 12,8 8 4 21 11 W 30 0,0
14.07.2018 12:00:00 25,2 12,4 11 6 27 14 NNW 29 0,0
14.07.2018 11:00:00 22,2 13,8 18 10 32 17 NNW 26 0,0
14.07.2018 10:00:00 20,4 13,6 20 11 35 19 NNW 24 0,0
14.07.2018 09:00:00 18,7 13,3 26 14 38 21 NW 24 0,0
14.07.2018 08:00:00 17,8 13,7 23 13 38 21 NW 27 0,0
14.07.2018 07:00:00 18,0 13,7 26 14 41 22 NW 27 0,0
14.07.2018 06:00:00 17,5 14,6 23 12 41 22 NW 21 0,0
14.07.2018 05:00:00 18,0 15,4 24 13 31 17 NNW 18 0,0
14.07.2018 04:00:00 18,4 16,0 21 11 30 16 NW 14 0,0
14.07.2018 03:00:00 18,7 15,8 24 13 30 16 NW 17 0,0
14.07.2018 02:00:00 19,2 15,1 20 11 24 13 NW 24 0,0
14.07.2018 01:00:00 18,7 16,1 11 6 19 10 W 39 0,0
14.07.2018 00:00:00 19,1 17,2 14 8 19 10 W 34 0,0
13.07.2018 23:00:00 19,4 16,4 16 8 18 10 WSW 28 0,0
13.07.2018 22:00:00 20,1 15,7 9 5 10 5 SW 50 0,0
13.07.2018 21:00:00 20,8 15,3 5 3 13 7 WNW 46 0,0
13.07.2018 20:00:00 21,6 15,7 0 0 32 17 N 50 0,0
13.07.2018 19:00:00 23,7 14,1 10 5 34 18 NW 46 0,0
13.07.2018 18:00:00 21,9 17,1 24 13 36 19 WSW 28 0,0
13.07.2018 17:00:00 22,5 15,6 27 15 36 19 SW 37 0,0
13.07.2018 16:00:00 23,2 16,5 22 12 33 18 SSW 36 0,0
13.07.2018 15:00:00 23,6 15,6 19 11 33 18 SSE 35 0,0
13.07.2018 14:00:00 24,6 14,1 18 10 29 15 S 31 0,0
13.07.2018 13:00:00 24,6 15,5 17 9 23 12 S 39 0,0
13.07.2018 12:00:00 25,4 13,6 5 3 16 9 NNW 37 0,0
13.07.2018 11:00:00 23,9 15,4 11 6 19 11 NNW 36 0,0
13.07.2018 10:00:00 20,9 16,1 11 6 19 11 NNW 20 0,0
13.07.2018 09:00:00 19,3 16,0 13 7 17 9 NNW 22 0,0
13.07.2018 08:00:00 19,2 16,1 10 6 21 11 N 29 0,0
13.07.2018 07:00:00 18,1 15,7 13 7 23 13 NNE 34 0,0
13.07.2018 06:00:00 17,8 15,6 19 10 24 13 NE 36 0,0
13.07.2018 05:00:00 17,5 15,7 18 10 24 13 NE 27 0,0
13.07.2018 04:00:00 17,3 16,5 14 7 21 11 N 12 0,0
13.07.2018 03:00:00 17,5 16,7 13 7 19 10 NNE 11 0,0
13.07.2018 02:00:00 17,5 16,7 10 6 15 8 N 13 0,0
13.07.2018 01:00:00 17,7 17,1 11 6 15 8 NNW 7 0,0
13.07.2018 00:00:00 17,9 17,3 8 5 13 7 NNW 5 0,0
12.07.2018 23:00:00 18,1 17,3 11 6 16 9 NW 8 0,0
12.07.2018 22:00:00 18,3 17,1 6 3 16 9 WSW 12 0,0
12.07.2018 21:00:00 18,6 17,4 6 4 16 9 SSW 16 0,9
12.07.2018 20:00:00 18,9 17,4 13 7 21 12 ESE 10 0,4
12.07.2018 19:00:00 19,4 17,0 11 6 23 13 SE 17 0,0
12.07.2018 18:00:00 20,2 16,0 14 8 29 16 SSE 28 0,0
12.07.2018 17:00:00 21,1 16,3 16 9 29 16 SSE 27 0,0
12.07.2018 16:00:00 22,0 16,5 20 11 35 19 SSE 35 0,0
12.07.2018 15:00:00 21,8 15,9 21 11 35 19 SE 31 0,1
12.07.2018 14:00:00 25,0 14,5 11 6 23 13 SE 25 0,0
12.07.2018 13:00:00 23,7 15,2 9 5 23 13 ESE 28 0,0
12.07.2018 12:00:00 22,1 15,2 18 10 23 13 ENE 25 0,0
12.07.2018 11:00:00 20,5 15,3 15 8 34 18 E 35 0,0
12.07.2018 10:00:00 21,5 15,1 16 9 34 18 ENE 42 0,0
12.07.2018 09:00:00 20,1 14,2 25 13 40 22 NE 33 0,0
12.07.2018 08:00:00 18,5 14,0 27 15 40 22 NE 27 0,0
12.07.2018 07:00:00 16,6 13,9 32 18 39 21 NE 22 0,0
12.07.2018 06:00:00 15,8 13,1 27 15 36 19 NE 30 0,0
12.07.2018 05:00:00 15,5 13,2 30 16 37 20 NE 32 0,0
12.07.2018 04:00:00 16,0 13,1 31 17 37 20 NE 42 0,0
12.07.2018 03:00:00 16,7 12,0 21 11 27 14 NE 43 0,0
12.07.2018 02:00:00 17,0 15,0 15 8 21 11 ENE 36 0,0
12.07.2018 01:00:00 16,8 15,1 13 7 20 11 NNE 25 0,0
12.07.2018 00:00:00 17,6 14,9 14 8 26 14 ENE 46 0,0
11.07.2018 23:00:00 17,8 13,5 16 9 36 19 ESE 41 0,0
11.07.2018 22:00:00 17,9 13,8 20 11 36 19 SE 49 0,0
11.07.2018 21:00:00 18,4 13,7 26 14 41 22 SE 48 0,0
11.07.2018 20:00:00 19,1 14,4 27 14 44 24 ESE 40 0,0
11.07.2018 19:00:00 19,8 14,4 32 17 44 24 ESE 32 0,0
11.07.2018 18:00:00 20,3 14,4 34 18 44 24 ESE 30 0,0
11.07.2018 17:00:00 20,7 13,9 32 17 46 25 ESE 28 0,0
11.07.2018 16:00:00 21,2 14,1 34 18 46 25 ESE 26 0,0
11.07.2018 15:00:00 21,2 14,8 36 19 46 25 ESE 29 0,0
11.07.2018 14:00:00 21,5 14,6 34 19 44 24 ESE 34 0,0
11.07.2018 13:00:00 21,7 15,1 34 19 42 23 ESE 30 0,0

tt = Température de l'air
td = dewpoint
ff = Vitesse du vent
fx = gusts
dd = Direction du vent
vv = visibility
rr = Quantités de précipitations

stations d'obs. à proximité